Terminal Aerodrome Forecast
Issued by NWS Twin Cities, MN

Home | Current Version | Previous Version | Text Only | Print | Product List | Glossary On
Versions: 1 2 3 4 5 6 7 8 9 10 11 12 13 14 15 16 17 18 19 20 21 22 23 24 25 26 27 28 29 30
000
FTUS43 KMPX 231735
TAFMSP
TAF
KMSP 231735Z 2318/2424 16011G17KT 3SM -TSRA BR SCT007 BKN035CB
      OVC060
     FM231900 16012G19KT P6SM SCT040 BKN090
     FM240200 17011KT P6SM VCSH BKN060 PROB30 2403/2406 2SM TSRA
      BKN020CB
     FM240700 23008KT P6SM SCT060 BKN100
     FM240800 28005KT P6SM SCT250=

USA.gov is the U.S. government's official web portal to all federal, state and local government web resources and services.